createdAt,value
2019-05-11T00:00:05.829Z,25.90
2019-05-11T00:02:44.695Z,26.00
2019-05-11T00:05:23.316Z,25.90
2019-05-11T00:08:02.414Z,25.90
2019-05-11T00:10:41.082Z,26.00
2019-05-11T00:13:20.067Z,26.00
2019-05-11T00:16:00.218Z,25.80
2019-05-11T00:18:38.195Z,25.80
2019-05-11T00:21:16.773Z,25.90
2019-05-11T00:23:55.393Z,26.00
2019-05-11T00:26:33.868Z,26.00
2019-05-11T00:29:12.706Z,26.10
2019-05-11T00:31:51.842Z,26.40
2019-05-11T00:34:30.378Z,26.30
2019-05-11T00:37:09.018Z,26.40
2019-05-11T00:39:47.804Z,26.30
2019-05-11T00:42:25.518Z,26.20
2019-05-11T00:45:03.667Z,26.50
2019-05-11T00:47:42.238Z,26.40
2019-05-11T00:50:20.691Z,26.50
2019-05-11T00:52:59.528Z,26.50
2019-05-11T00:55:38.703Z,26.80
2019-05-11T00:58:17.558Z,26.90
2019-05-11T01:00:55.580Z,26.90
2019-05-11T01:03:33.731Z,26.90
2019-05-11T01:06:12.267Z,26.80
2019-05-11T01:08:51.628Z,26.90
2019-05-11T01:11:30.769Z,27.00
2019-05-11T01:14:09.390Z,27.10
2019-05-11T01:16:47.982Z,27.00
2019-05-11T01:19:26.749Z,27.00
2019-05-11T01:22:04.837Z,27.10
2019-05-11T01:24:43.503Z,26.90
2019-05-11T01:27:23.478Z,26.90
2019-05-11T01:30:02.214Z,26.80
2019-05-11T01:32:40.742Z,26.80
2019-05-11T01:35:20.230Z,26.90
2019-05-11T01:37:58.213Z,27.00
2019-05-11T01:40:37.783Z,27.20
2019-05-11T01:43:33.808Z,27.20
2019-05-11T01:46:12.363Z,27.30
2019-05-11T01:48:50.854Z,27.60
2019-05-11T01:51:28.672Z,27.50
2019-05-11T01:54:08.210Z,27.60
2019-05-11T01:56:47.248Z,27.40
2019-05-11T01:59:26.099Z,27.50
2019-05-11T02:02:04.911Z,27.50
2019-05-11T02:04:44.094Z,27.60
2019-05-11T02:07:23.554Z,27.60
2019-05-11T02:10:02.177Z,27.60
2019-05-11T02:12:41.320Z,27.70
2019-05-11T02:15:21.442Z,27.60
2019-05-11T02:18:00.145Z,27.40
2019-05-11T02:20:40.980Z,27.60
2019-05-11T02:23:19.335Z,27.90
2019-05-11T02:25:58.212Z,28.00
2019-05-11T02:28:36.659Z,27.90
2019-05-11T02:31:15.522Z,27.80
2019-05-11T02:33:57.183Z,27.90
2019-05-11T02:36:35.177Z,28.10
2019-05-11T02:39:14.362Z,28.30
2019-05-11T02:41:53.387Z,28.30
2019-05-11T02:44:32.083Z,28.50
2019-05-11T02:47:11.056Z,29.10
2019-05-11T02:49:50.453Z,28.80
2019-05-11T02:52:30.356Z,29.10
2019-05-11T02:55:10.115Z,29.30
2019-05-11T02:57:49.249Z,29.60
2019-05-11T03:00:31.797Z,29.20
2019-05-11T03:03:10.815Z,29.30
2019-05-11T03:05:49.121Z,29.50
2019-05-11T03:08:27.919Z,29.50
2019-05-11T03:11:06.787Z,29.60
2019-05-11T03:13:45.326Z,29.80
2019-05-11T03:16:23.410Z,29.60
2019-05-11T03:19:01.965Z,29.50
2019-05-11T03:21:40.051Z,29.60
2019-05-11T03:24:18.905Z,29.90
2019-05-11T03:26:57.175Z,29.60
2019-05-11T03:29:36.626Z,29.70
2019-05-11T03:32:17.354Z,30.20
2019-05-11T03:34:55.300Z,30.30
2019-05-11T03:37:33.135Z,30.40
2019-05-11T03:40:13.001Z,30.20
2019-05-11T03:42:52.276Z,30.20
2019-05-11T03:45:30.795Z,30.50
2019-05-11T03:48:09.984Z,30.50
2019-05-11T03:50:47.931Z,30.30
2019-05-11T03:53:27.636Z,30.10
2019-05-11T03:56:05.538Z,30.50
2019-05-11T03:58:44.036Z,30.60
2019-05-11T04:01:30.219Z,30.50
2019-05-11T04:04:08.825Z,30.40
2019-05-11T04:06:47.626Z,30.70
2019-05-11T04:09:26.585Z,31.10
2019-05-11T04:12:05.196Z,31.40
2019-05-11T04:14:44.184Z,30.80
2019-05-11T04:17:25.176Z,30.30
2019-05-11T04:20:03.192Z,30.20
2019-05-11T04:22:43.185Z,30.70
2019-05-11T04:25:23.109Z,30.50
2019-05-11T04:28:01.764Z,30.80
2019-05-11T04:30:40.540Z,31.00
2019-05-11T04:33:18.345Z,31.20
2019-05-11T04:35:55.539Z,31.10
2019-05-11T04:38:34.566Z,31.10
2019-05-11T04:41:13.901Z,31.10
2019-05-11T04:43:53.948Z,31.50
2019-05-11T04:46:33.107Z,31.60
2019-05-11T04:49:16.449Z,31.40
2019-05-11T04:51:56.234Z,31.70
2019-05-11T04:54:36.060Z,32.00
2019-05-11T04:57:15.368Z,31.80
2019-05-11T04:59:53.623Z,31.90
2019-05-11T05:02:32.063Z,31.80
2019-05-11T05:05:11.083Z,32.00
2019-05-11T05:07:50.674Z,32.10
2019-05-11T05:10:29.705Z,32.10
2019-05-11T05:13:10.607Z,31.90
2019-05-11T05:15:47.598Z,32.10
2019-05-11T05:18:26.622Z,32.50
2019-05-11T05:21:06.681Z,32.30
2019-05-11T05:23:45.193Z,32.00
2019-05-11T05:26:23.206Z,32.00
2019-05-11T05:29:01.287Z,32.20
2019-05-11T05:31:39.560Z,32.00
2019-05-11T05:34:18.630Z,32.00
2019-05-11T05:36:57.525Z,32.00
2019-05-11T05:39:36.822Z,32.40
2019-05-11T05:42:15.600Z,32.20
2019-05-11T05:44:54.269Z,32.20
2019-05-11T05:47:34.010Z,32.20
2019-05-11T05:50:12.470Z,32.40
2019-05-11T05:52:50.884Z,32.10
2019-05-11T05:55:29.937Z,31.90
2019-05-11T05:58:08.442Z,31.90
2019-05-11T06:00:47.311Z,32.70
2019-05-11T06:03:25.419Z,33.20
2019-05-11T06:06:03.980Z,33.30
2019-05-11T06:08:43.904Z,33.10
2019-05-11T06:11:23.217Z,32.40
2019-05-11T06:14:02.300Z,32.40
2019-05-11T06:16:40.975Z,32.80
2019-05-11T06:19:19.601Z,33.20
2019-05-11T06:21:58.553Z,33.20
2019-05-11T06:24:36.652Z,32.50
2019-05-11T06:27:15.603Z,32.30
2019-05-11T06:29:54.177Z,32.50
2019-05-11T06:32:33.512Z,32.40
2019-05-11T06:35:12.454Z,32.30
2019-05-11T06:37:51.858Z,32.30
2019-05-11T06:40:32.619Z,32.70
2019-05-11T06:43:10.959Z,33.10
2019-05-11T06:45:49.710Z,33.10
2019-05-11T06:48:28.990Z,33.50
2019-05-11T06:51:07.464Z,33.10
2019-05-11T06:53:45.472Z,33.50
2019-05-11T06:56:23.197Z,33.10
2019-05-11T06:59:03.750Z,33.20
2019-05-11T07:01:42.389Z,32.90
2019-05-11T07:04:21.550Z,32.90
2019-05-11T07:07:00.099Z,32.60
2019-05-11T07:09:38.025Z,32.50
2019-05-11T07:12:16.207Z,32.80
2019-05-11T07:14:55.153Z,32.70
2019-05-11T07:17:33.709Z,32.60
2019-05-11T07:20:13.595Z,32.30
2019-05-11T07:22:51.658Z,32.80
2019-05-11T07:25:29.158Z,33.40
2019-05-11T07:28:07.927Z,33.40
2019-05-11T07:30:48.083Z,33.20
2019-05-11T07:33:28.575Z,33.00
2019-05-11T07:36:08.436Z,32.90
2019-05-11T07:38:48.597Z,32.90
2019-05-11T07:41:28.113Z,32.90
2019-05-11T07:44:06.407Z,33.10
2019-05-11T07:46:48.125Z,33.10
2019-05-11T07:49:25.849Z,33.10
2019-05-11T07:52:04.627Z,32.70
2019-05-11T07:54:42.667Z,32.50
2019-05-11T07:57:21.396Z,32.40
2019-05-11T08:00:00.765Z,32.20
2019-05-11T08:02:41.007Z,32.60
2019-05-11T08:05:38.387Z,32.70
2019-05-11T08:08:17.902Z,32.30
2019-05-11T08:10:55.842Z,32.40
2019-05-11T08:13:34.692Z,32.80
2019-05-11T08:16:13.303Z,32.90
2019-05-11T08:18:52.261Z,32.70
2019-05-11T08:21:31.279Z,32.40
2019-05-11T08:24:09.185Z,32.70
2019-05-11T08:26:48.161Z,32.70
2019-05-11T08:29:27.678Z,32.60
2019-05-11T08:32:05.408Z,32.40
2019-05-11T08:34:43.650Z,32.50
2019-05-11T08:37:23.144Z,32.80
2019-05-11T08:40:02.369Z,32.90
2019-05-11T08:42:41.215Z,32.90
2019-05-11T08:45:24.529Z,32.80
2019-05-11T08:47:59.136Z,32.40
2019-05-11T08:50:38.262Z,32.60
2019-05-11T08:53:20.486Z,32.50
2019-05-11T08:55:58.917Z,32.50
2019-05-11T08:58:38.233Z,32.50
2019-05-11T09:01:18.522Z,32.60
2019-05-11T09:03:58.540Z,32.80
2019-05-11T09:06:37.763Z,32.70
2019-05-11T09:09:18.145Z,32.70
2019-05-11T09:11:58.858Z,32.70
2019-05-11T09:14:38.539Z,32.70
2019-05-11T09:17:18.280Z,32.60
2019-05-11T09:19:58.044Z,32.60
2019-05-11T09:22:37.963Z,32.50
2019-05-11T09:25:18.235Z,32.80
2019-05-11T09:27:58.705Z,32.90
2019-05-11T09:30:41.436Z,32.90
2019-05-11T09:33:20.794Z,33.10
2019-05-11T09:35:58.562Z,33.00
2019-05-11T09:38:38.552Z,32.70
2019-05-11T09:41:18.170Z,32.80
2019-05-11T09:43:58.686Z,32.90
2019-05-11T09:46:38.453Z,32.80
2019-05-11T09:49:18.505Z,32.50
2019-05-11T09:51:58.917Z,32.40
2019-05-11T09:54:38.503Z,32.70
2019-05-11T09:57:18.370Z,32.80
2019-05-11T09:59:58.226Z,32.50
2019-05-11T10:02:35.018Z,32.70
2019-05-11T10:05:14.290Z,32.80
2019-05-11T10:07:53.497Z,32.50
2019-05-11T10:10:31.976Z,32.70
2019-05-11T10:13:09.635Z,32.50
2019-05-11T10:16:03.586Z,32.30
2019-05-11T10:18:28.938Z,32.40
2019-05-11T10:21:08.290Z,32.10
2019-05-11T10:23:48.833Z,32.20
2019-05-11T10:26:27.985Z,32.20
2019-05-11T10:29:07.902Z,32.20
2019-05-11T10:31:47.905Z,32.20
2019-05-11T10:34:28.569Z,32.10
2019-05-11T10:37:05.743Z,32.20
2019-05-11T10:39:44.763Z,32.10
2019-05-11T10:42:23.621Z,32.00
2019-05-11T10:45:02.588Z,32.20
2019-05-11T10:47:40.783Z,32.10
2019-05-11T10:50:20.663Z,31.90
2019-05-11T10:52:59.541Z,31.90
2019-05-11T10:55:38.935Z,32.10
2019-05-11T10:58:18.413Z,32.00
2019-05-11T11:00:58.229Z,32.00
2019-05-11T11:03:37.871Z,31.70
2019-05-11T11:06:18.741Z,31.60
2019-05-11T11:08:57.932Z,31.80
2019-05-11T11:11:38.245Z,31.80
2019-05-11T11:14:18.106Z,31.60
2019-05-11T11:16:58.347Z,31.70
2019-05-11T11:19:37.971Z,31.50
2019-05-11T11:22:33.331Z,31.40
2019-05-11T11:24:58.720Z,31.30
2019-05-11T11:27:38.136Z,31.10
2019-05-11T11:30:18.053Z,31.10
2019-05-11T11:32:55.945Z,31.10
2019-05-11T11:35:34.564Z,31.00
2019-05-11T11:38:13.508Z,31.00
2019-05-11T11:40:52.350Z,30.80
2019-05-11T11:43:32.025Z,30.80
2019-05-11T11:46:10.614Z,30.70
2019-05-11T11:48:49.290Z,30.70
2019-05-11T11:51:28.612Z,30.60
2019-05-11T11:54:08.707Z,30.60
2019-05-11T11:56:48.508Z,30.60
2019-05-11T11:59:28.533Z,30.50
2019-05-11T12:02:08.393Z,30.50
2019-05-11T12:04:48.465Z,30.40
2019-05-11T12:07:28.317Z,30.30
2019-05-11T12:10:07.829Z,30.20
2019-05-11T12:12:47.505Z,30.20
2019-05-11T12:15:25.336Z,30.10
2019-05-11T12:18:04.048Z,30.10
2019-05-11T12:20:43.656Z,30.10
2019-05-11T12:23:22.486Z,30.00
2019-05-11T12:26:01.405Z,30.00
2019-05-11T12:28:40.287Z,30.00
2019-05-11T12:31:18.646Z,29.90
2019-05-11T12:33:58.485Z,29.90
2019-05-11T12:36:38.496Z,29.90
2019-05-11T12:39:18.948Z,29.70
2019-05-11T12:41:58.187Z,29.80
2019-05-11T12:44:38.585Z,29.70
2019-05-11T12:47:22.235Z,29.70
2019-05-11T12:49:56.131Z,29.70
2019-05-11T12:52:34.577Z,29.50
2019-05-11T12:55:13.619Z,29.50
2019-05-11T12:57:52.099Z,29.60
2019-05-11T13:00:31.525Z,29.60
2019-05-11T13:03:10.684Z,29.60
2019-05-11T13:05:48.659Z,29.50
2019-05-11T13:08:27.766Z,29.40
2019-05-11T13:11:07.877Z,29.50
2019-05-11T13:13:45.342Z,29.40
2019-05-11T13:16:23.302Z,29.40
2019-05-11T13:19:02.836Z,29.40
2019-05-11T13:21:42.170Z,29.30
2019-05-11T13:24:22.390Z,29.10
2019-05-11T13:27:03.399Z,29.10
2019-05-11T13:29:41.332Z,29.10
2019-05-11T13:32:19.580Z,29.10
2019-05-11T13:34:58.394Z,29.00
2019-05-11T13:37:38.468Z,29.00
2019-05-11T13:40:18.498Z,28.90
2019-05-11T13:42:55.415Z,28.90
2019-05-11T13:45:33.949Z,28.90
2019-05-11T13:48:12.375Z,28.90
2019-05-11T13:50:50.824Z,28.80
2019-05-11T13:53:28.426Z,28.80
2019-05-11T13:56:07.984Z,28.80
2019-05-11T13:58:45.829Z,28.80
2019-05-11T14:01:23.937Z,28.70
2019-05-11T14:04:02.707Z,28.70
2019-05-11T14:06:41.436Z,28.60
2019-05-11T14:09:20.352Z,28.70
2019-05-11T14:12:00.225Z,28.70
2019-05-11T14:14:38.745Z,28.70
2019-05-11T14:17:18.689Z,28.60
2019-05-11T14:19:58.442Z,28.60
2019-05-11T14:22:38.500Z,28.60
2019-05-11T14:25:15.671Z,28.50
2019-05-11T14:27:54.424Z,28.50
2019-05-11T14:30:32.953Z,28.40
2019-05-11T14:33:11.769Z,28.40
2019-05-11T14:35:50.219Z,28.40
2019-05-11T14:38:28.916Z,28.40
2019-05-11T14:41:07.907Z,28.40
2019-05-11T14:43:48.742Z,28.40
2019-05-11T14:46:27.878Z,28.30
2019-05-11T14:49:07.933Z,28.40
2019-05-11T14:51:48.402Z,28.40
2019-05-11T14:54:25.733Z,28.50
2019-05-11T14:57:03.310Z,28.50
2019-05-11T14:59:41.874Z,28.30
2019-05-11T15:02:37.733Z,28.30
2019-05-11T15:05:18.092Z,28.30
2019-05-11T15:07:58.082Z,28.20
2019-05-11T15:10:38.110Z,28.20
2019-05-11T15:13:18.383Z,28.20
2019-05-11T15:15:55.780Z,28.20
2019-05-11T15:18:38.884Z,28.20
2019-05-11T15:21:14.723Z,28.10
2019-05-11T15:23:53.133Z,27.90
2019-05-11T15:26:31.657Z,27.90
2019-05-11T15:29:10.664Z,28.00
2019-05-11T15:31:49.771Z,27.90
2019-05-11T15:34:28.824Z,27.70
2019-05-11T15:37:08.365Z,27.80
2019-05-11T15:39:48.376Z,27.90
2019-05-11T15:42:24.637Z,27.90
2019-05-11T15:45:00.500Z,27.90
2019-05-11T15:47:37.806Z,27.90
2019-05-11T15:50:14.148Z,27.90
2019-05-11T15:52:50.287Z,27.90
2019-05-11T15:55:27.880Z,27.90
2019-05-11T15:58:05.261Z,27.90
2019-05-11T16:00:41.937Z,27.90
2019-05-11T16:03:18.620Z,27.90
2019-05-11T16:05:58.133Z,27.90
2019-05-11T16:08:34.022Z,27.90
2019-05-11T16:11:10.618Z,28.00
2019-05-11T16:13:48.452Z,27.90
2019-05-11T16:16:25.043Z,27.50
2019-05-11T16:19:11.768Z,27.60
2019-05-11T16:21:40.046Z,27.80
2019-05-11T16:24:16.675Z,27.90
2019-05-11T16:26:53.476Z,27.80
2019-05-11T16:29:30.260Z,27.80
2019-05-11T16:32:08.371Z,27.80
2019-05-11T16:34:45.475Z,27.80
2019-05-11T16:37:22.038Z,27.80
2019-05-11T16:39:59.739Z,27.60
2019-05-11T16:42:38.288Z,27.50
2019-05-11T16:45:15.526Z,27.50
2019-05-11T16:47:51.981Z,27.50
2019-05-11T16:50:29.067Z,27.50
2019-05-11T16:53:05.763Z,27.60
2019-05-11T16:55:42.507Z,27.40
2019-05-11T16:58:20.075Z,27.20
2019-05-11T17:00:58.136Z,27.30
2019-05-11T17:03:34.850Z,27.40
2019-05-11T17:06:11.915Z,27.60
2019-05-11T17:08:48.730Z,27.60
2019-05-11T17:11:25.122Z,27.60
2019-05-11T17:14:01.182Z,27.50
2019-05-11T17:16:38.748Z,27.50
2019-05-11T17:19:15.447Z,27.50
2019-05-11T17:21:53.488Z,27.50
2019-05-11T17:24:31.265Z,27.40
2019-05-11T17:27:08.823Z,27.50
2019-05-11T17:29:45.608Z,27.50
2019-05-11T17:32:22.333Z,27.40
2019-05-11T17:34:58.689Z,27.40
2019-05-11T17:37:38.029Z,27.40
2019-05-11T17:40:15.098Z,27.50
2019-05-11T17:42:54.080Z,27.50
2019-05-11T17:45:30.935Z,27.50
2019-05-11T17:48:08.541Z,27.60
2019-05-11T17:50:54.123Z,27.60
2019-05-11T17:53:30.682Z,27.60
2019-05-11T17:56:07.488Z,27.60
2019-05-11T17:58:45.145Z,27.50
2019-05-11T18:01:21.677Z,27.50
2019-05-11T18:03:58.829Z,27.50
2019-05-11T18:06:35.601Z,27.60
2019-05-11T18:09:13.087Z,27.50
2019-05-11T18:11:49.417Z,27.40
2019-05-11T18:14:27.994Z,27.50
2019-05-11T18:17:03.901Z,27.60
2019-05-11T18:19:40.377Z,27.60
2019-05-11T18:22:17.852Z,27.60
2019-05-11T18:24:54.612Z,27.60
2019-05-11T18:27:31.018Z,27.60
2019-05-11T18:30:08.724Z,27.60
2019-05-11T18:32:45.374Z,27.50
2019-05-11T18:35:21.648Z,27.50
2019-05-11T18:37:58.564Z,27.50
2019-05-11T18:40:35.111Z,27.60
2019-05-11T18:43:11.492Z,27.60
2019-05-11T18:45:48.862Z,27.60
2019-05-11T18:48:25.603Z,27.60
2019-05-11T18:51:02.313Z,27.50
2019-05-11T18:53:38.561Z,27.50
2019-05-11T18:56:15.214Z,27.50
2019-05-11T18:58:51.834Z,27.40
2019-05-11T19:01:28.600Z,27.40
2019-05-11T19:04:05.131Z,27.30
2019-05-11T19:06:41.498Z,27.30
2019-05-11T19:09:19.391Z,27.30
2019-05-11T19:11:57.779Z,27.40
2019-05-11T19:14:34.339Z,27.40
2019-05-11T19:17:11.087Z,27.40
2019-05-11T19:19:48.623Z,27.40
2019-05-11T19:22:25.330Z,27.40
2019-05-11T19:25:02.127Z,27.30
2019-05-11T19:27:38.744Z,27.20
2019-05-11T19:30:15.641Z,27.20
2019-05-11T19:32:53.489Z,27.20
2019-05-11T19:35:29.980Z,27.10
2019-05-11T19:38:08.473Z,27.00
2019-05-11T19:40:44.424Z,27.10
2019-05-11T19:43:20.912Z,27.10
2019-05-11T19:45:58.206Z,27.10
2019-05-11T19:48:38.309Z,27.10
2019-05-11T19:51:14.059Z,27.10
2019-05-11T19:53:50.844Z,27.10
2019-05-11T19:56:29.007Z,27.20
2019-05-11T19:59:05.229Z,27.20
2019-05-11T20:01:41.691Z,27.10
2019-05-11T20:04:18.832Z,27.10
2019-05-11T20:06:58.259Z,27.10
2019-05-11T20:09:34.728Z,27.10
2019-05-11T20:12:11.096Z,27.20
2019-05-11T20:14:48.271Z,26.90
2019-05-11T20:17:24.741Z,27.00
2019-05-11T20:20:01.335Z,27.10
2019-05-11T20:22:39.002Z,26.90
2019-05-11T20:25:18.524Z,26.90
2019-05-11T20:27:54.138Z,26.90
2019-05-11T20:30:30.548Z,26.90
2019-05-11T20:33:08.718Z,26.80
2019-05-11T20:35:45.142Z,26.80
2019-05-11T20:38:21.914Z,26.80
2019-05-11T20:40:58.773Z,26.90
2019-05-11T20:43:35.307Z,26.80
2019-05-11T20:46:12.236Z,26.70
2019-05-11T20:48:48.970Z,26.80
2019-05-11T20:51:36.233Z,26.80
2019-05-11T20:54:02.851Z,26.90
2019-05-11T20:56:39.598Z,26.90
2019-05-11T20:59:18.154Z,26.90
2019-05-11T21:01:53.908Z,26.90
2019-05-11T21:04:31.427Z,26.90
2019-05-11T21:07:08.513Z,26.90
2019-05-11T21:09:45.255Z,26.90
2019-05-11T21:12:21.738Z,26.80
2019-05-11T21:14:58.530Z,26.80
2019-05-11T21:17:34.787Z,26.80
2019-05-11T21:20:12.124Z,26.80
2019-05-11T21:22:48.712Z,26.80
2019-05-11T21:25:25.422Z,26.60
2019-05-11T21:28:01.952Z,26.60
2019-05-11T21:30:39.998Z,26.60
2019-05-11T21:33:17.946Z,26.50
2019-05-11T21:35:54.656Z,26.60
2019-05-11T21:38:31.841Z,26.60
2019-05-11T21:41:08.762Z,26.80
2019-05-11T21:43:45.486Z,26.80
2019-05-11T21:46:22.305Z,26.80
2019-05-11T21:48:59.299Z,26.80
2019-05-11T21:51:37.925Z,26.80
2019-05-11T21:54:13.961Z,26.80
2019-05-11T21:56:50.585Z,26.70
2019-05-11T21:59:29.526Z,26.60
2019-05-11T22:02:10.656Z,26.50
2019-05-11T22:04:44.457Z,26.50
2019-05-11T22:07:23.201Z,26.60
2019-05-11T22:09:59.973Z,26.70
2019-05-11T22:12:38.329Z,26.70
2019-05-11T22:15:14.605Z,26.70
2019-05-11T22:17:51.449Z,26.50
2019-05-11T22:20:28.781Z,26.50
2019-05-11T22:23:05.561Z,26.50
2019-05-11T22:25:41.819Z,26.50
2019-05-11T22:28:18.468Z,26.70
2019-05-11T22:30:55.325Z,26.70
2019-05-11T22:33:31.782Z,26.70
2019-05-11T22:36:08.199Z,26.60
2019-05-11T22:38:48.139Z,26.60
2019-05-11T22:41:23.304Z,26.60
2019-05-11T22:43:59.731Z,26.70
2019-05-11T22:46:38.516Z,26.60
2019-05-11T22:49:14.690Z,26.60
2019-05-11T22:51:52.299Z,26.70
2019-05-11T22:54:28.932Z,26.70
2019-05-11T22:57:07.914Z,26.60
2019-05-11T22:59:43.794Z,26.50
2019-05-11T23:02:20.645Z,26.40
2019-05-11T23:04:57.918Z,26.30
2019-05-11T23:07:34.800Z,26.20
2019-05-11T23:10:11.681Z,26.20
2019-05-11T23:12:48.409Z,26.20
2019-05-11T23:15:25.097Z,26.30
2019-05-11T23:18:01.826Z,26.30
2019-05-11T23:20:38.852Z,26.50
2019-05-11T23:23:17.663Z,26.60
2019-05-11T23:25:53.274Z,26.60
2019-05-11T23:28:29.842Z,26.60
2019-05-11T23:31:08.872Z,26.70
2019-05-11T23:33:44.518Z,26.60
2019-05-11T23:36:21.183Z,26.70
2019-05-11T23:38:58.633Z,26.80
2019-05-11T23:41:35.128Z,26.80
2019-05-11T23:44:12.205Z,26.90
2019-05-11T23:46:48.483Z,26.80
2019-05-11T23:49:24.907Z,26.90
2019-05-11T23:52:01.383Z,27.00
2019-05-11T23:54:38.359Z,27.10
2019-05-11T23:57:14.813Z,27.20
2019-05-11T23:59:51.489Z,27.40
